createdAt,value
2023-04-19T00:01:18.322Z,3.93
2023-04-19T00:03:21.129Z,4.03
2023-04-19T00:05:24.660Z,4.13
2023-04-19T00:07:28.804Z,4.40
2023-04-19T00:09:31.489Z,3.27
2023-04-19T00:11:35.439Z,4.00
2023-04-19T00:13:38.413Z,3.50
2023-04-19T00:15:41.399Z,3.97
2023-04-19T00:17:44.515Z,3.33
2023-04-19T00:19:47.774Z,3.40
2023-04-19T00:21:50.576Z,3.50
2023-04-19T00:23:54.007Z,3.47
2023-04-19T00:25:56.763Z,3.70
2023-04-19T00:28:01.107Z,3.60
2023-04-19T00:30:03.830Z,3.27
2023-04-19T00:32:07.155Z,3.73
2023-04-19T00:34:09.862Z,3.47
2023-04-19T00:36:13.043Z,3.40
2023-04-19T00:38:15.769Z,3.20
2023-04-19T00:40:18.479Z,3.13
2023-04-19T00:42:21.231Z,2.87
2023-04-19T00:44:25.608Z,3.20
2023-04-19T00:46:28.472Z,3.37
2023-04-19T00:48:31.927Z,2.80
2023-04-19T00:50:36.081Z,3.10
2023-04-19T00:52:38.887Z,3.40
2023-04-19T00:54:41.967Z,3.23
2023-04-19T00:56:44.875Z,3.37
2023-04-19T00:58:48.004Z,2.60
2023-04-19T01:00:51.968Z,2.80
2023-04-19T01:02:55.569Z,3.03
2023-04-19T01:04:58.380Z,2.60
2023-04-19T01:07:01.881Z,3.10
2023-04-19T01:09:04.752Z,2.43
2023-04-19T01:11:08.050Z,3.20
2023-04-19T01:13:10.784Z,3.03
2023-04-19T01:15:13.749Z,2.90
2023-04-19T01:17:18.001Z,2.50
2023-04-19T01:19:21.319Z,2.80
2023-04-19T01:21:24.046Z,2.73
2023-04-19T01:23:28.699Z,2.70
2023-04-19T01:25:31.600Z,3.20
2023-04-19T01:27:34.371Z,2.50
2023-04-19T01:29:37.013Z,2.50
2023-04-19T01:31:40.259Z,2.73
2023-04-19T01:33:43.240Z,2.63
2023-04-19T01:35:45.909Z,2.40
2023-04-19T01:37:49.055Z,3.03
2023-04-19T01:39:53.045Z,2.67
2023-04-19T01:41:55.795Z,2.90
2023-04-19T01:43:58.450Z,2.40
2023-04-19T01:46:01.551Z,2.57
2023-04-19T01:48:04.695Z,2.87
2023-04-19T01:50:08.506Z,2.37
2023-04-19T01:52:11.445Z,2.37
2023-04-19T01:54:14.793Z,2.33
2023-04-19T01:56:19.055Z,2.50
2023-04-19T01:58:21.836Z,2.37
2023-04-19T02:00:24.654Z,2.43
2023-04-19T02:02:27.794Z,2.37
2023-04-19T02:04:30.556Z,2.10
2023-04-19T02:06:33.251Z,2.50
2023-04-19T02:08:35.923Z,2.30
2023-04-19T02:10:38.970Z,2.30
2023-04-19T02:12:42.978Z,2.70
2023-04-19T02:14:45.809Z,2.97
2023-04-19T02:16:48.567Z,2.50
2023-04-19T02:18:52.155Z,2.60
2023-04-19T02:20:54.871Z,2.00
2023-04-19T02:22:57.602Z,2.60
2023-04-19T02:25:00.755Z,2.23
2023-04-19T02:27:03.951Z,2.30
2023-04-19T02:29:08.162Z,2.43
2023-04-19T02:31:11.020Z,2.33
2023-04-19T02:33:14.100Z,2.20
2023-04-19T02:35:17.699Z,2.63
2023-04-19T02:37:20.380Z,2.37
2023-04-19T02:39:23.093Z,2.67
2023-04-19T02:41:25.804Z,2.30
2023-04-19T02:43:28.496Z,2.27
2023-04-19T02:45:32.511Z,2.30
2023-04-19T02:47:35.265Z,2.00
2023-04-19T02:49:41.408Z,2.10
2023-04-19T02:51:44.069Z,1.97
2023-04-19T02:53:46.763Z,2.20
2023-04-19T02:55:49.453Z,1.97
2023-04-19T02:57:52.505Z,2.03
2023-04-19T02:59:55.185Z,1.70
2023-04-19T03:01:59.176Z,1.83
2023-04-19T03:04:01.978Z,2.37
2023-04-19T03:06:05.275Z,2.30
2023-04-19T03:08:07.945Z,2.07
2023-04-19T03:10:11.178Z,2.20
2023-04-19T03:12:14.890Z,1.80
2023-04-19T03:14:18.086Z,2.10
2023-04-19T03:16:21.404Z,2.37
2023-04-19T03:18:26.024Z,2.00
2023-04-19T03:20:28.752Z,2.20
2023-04-19T03:22:31.811Z,2.40
2023-04-19T03:24:37.074Z,2.30
2023-04-19T03:26:40.682Z,1.87
2023-04-19T03:28:43.359Z,2.37
2023-04-19T03:30:46.574Z,2.50
2023-04-19T03:32:49.520Z,2.97
2023-04-19T03:34:53.694Z,2.17
2023-04-19T03:36:56.991Z,2.20
2023-04-19T03:38:59.688Z,2.40
2023-04-19T03:41:02.360Z,2.40
2023-04-19T03:43:05.071Z,2.20
2023-04-19T03:45:09.523Z,2.37
2023-04-19T03:47:12.321Z,2.07
2023-04-19T03:49:15.149Z,2.00
2023-04-19T03:51:19.436Z,2.30
2023-04-19T03:53:22.503Z,2.10
2023-04-19T03:55:25.408Z,2.40
2023-04-19T03:57:28.125Z,2.30
2023-04-19T03:59:30.791Z,2.30
2023-04-19T04:01:34.275Z,2.10
2023-04-19T04:03:37.181Z,2.40
2023-04-19T04:05:40.240Z,2.40
2023-04-19T04:07:44.310Z,2.10
2023-04-19T04:09:47.789Z,2.43
2023-04-19T04:11:50.662Z,2.07
2023-04-19T04:13:53.337Z,2.50
2023-04-19T04:15:56.480Z,2.60
2023-04-19T04:17:59.292Z,2.40
2023-04-19T04:20:02.179Z,2.07
2023-04-19T04:22:05.224Z,2.30
2023-04-19T04:24:09.788Z,2.30
2023-04-19T04:26:13.808Z,2.30
2023-04-19T04:28:16.498Z,2.50
2023-04-19T04:30:19.178Z,2.20
2023-04-19T04:32:23.574Z,2.17
2023-04-19T04:34:26.452Z,2.33
2023-04-19T04:36:29.748Z,2.80
2023-04-19T04:38:33.349Z,2.40
2023-04-19T04:40:37.328Z,2.30
2023-04-19T04:42:40.818Z,2.50
2023-04-19T04:44:44.895Z,2.40
2023-04-19T04:46:48.055Z,2.43
2023-04-19T04:48:51.262Z,2.30
2023-04-19T04:50:53.908Z,2.23
2023-04-19T04:52:56.520Z,2.03
2023-04-19T04:54:59.172Z,2.23
2023-04-19T04:57:03.988Z,2.33
2023-04-19T04:59:07.951Z,2.43
2023-04-19T05:01:11.163Z,2.50
2023-04-19T05:03:19.529Z,2.40
2023-04-19T05:05:22.225Z,2.37
2023-04-19T05:07:24.935Z,2.40
2023-04-19T05:09:28.026Z,2.00
2023-04-19T05:11:30.698Z,1.90
2023-04-19T05:13:34.648Z,2.00
2023-04-19T05:15:37.288Z,2.17
2023-04-19T05:17:40.061Z,2.53
2023-04-19T05:19:42.781Z,2.30
2023-04-19T05:21:47.572Z,2.20
2023-04-19T05:23:53.320Z,2.73
2023-04-19T05:25:55.994Z,2.30
2023-04-19T05:27:59.002Z,2.30
2023-04-19T05:30:07.576Z,2.00
2023-04-19T05:32:10.419Z,2.43
2023-04-19T05:34:13.202Z,2.37
2023-04-19T05:36:21.994Z,2.33
2023-04-19T05:38:24.748Z,2.20
2023-04-19T05:40:28.381Z,2.30
2023-04-19T05:42:31.106Z,2.40
2023-04-19T05:44:34.252Z,2.10
2023-04-19T05:46:38.267Z,2.80
2023-04-19T05:48:41.047Z,2.07
2023-04-19T05:50:43.683Z,2.00
2023-04-19T05:52:46.714Z,2.40
2023-04-19T05:54:49.406Z,2.17
2023-04-19T05:56:52.086Z,2.10
2023-04-19T05:58:56.220Z,2.00
2023-04-19T06:00:58.915Z,2.07
2023-04-19T06:03:03.111Z,1.80
2023-04-19T06:05:10.152Z,2.17
2023-04-19T06:07:27.273Z,1.93
2023-04-19T06:09:34.285Z,2.10
2023-04-19T06:11:47.020Z,2.10
2023-04-19T06:13:52.475Z,2.30
2023-04-19T06:15:55.201Z,2.23
2023-04-19T06:17:59.765Z,2.00
2023-04-19T06:20:06.834Z,2.63
2023-04-19T06:22:09.512Z,2.40
2023-04-19T06:24:12.399Z,1.90
2023-04-19T06:26:15.104Z,2.00
2023-04-19T06:28:18.167Z,1.90
2023-04-19T06:30:20.957Z,2.27
2023-04-19T06:32:23.633Z,1.93
2023-04-19T06:34:26.377Z,2.17
2023-04-19T06:36:30.849Z,1.93
2023-04-19T06:38:33.578Z,2.07
2023-04-19T06:40:36.237Z,2.07
2023-04-19T06:42:38.959Z,2.30
2023-04-19T06:44:42.072Z,1.80
2023-04-19T06:46:44.742Z,2.10
2023-04-19T06:48:47.376Z,2.27
2023-04-19T06:50:50.065Z,2.00
2023-04-19T06:52:54.530Z,2.07
2023-04-19T06:54:57.251Z,1.70
2023-04-19T06:56:59.906Z,1.83
2023-04-19T06:59:02.609Z,2.10
2023-04-19T07:01:06.113Z,1.97
2023-04-19T07:03:09.184Z,2.00
2023-04-19T07:05:12.909Z,1.63
2023-04-19T07:07:15.704Z,1.70
2023-04-19T07:09:20.031Z,1.87
2023-04-19T07:11:23.002Z,2.03
2023-04-19T07:13:26.071Z,1.90
2023-04-19T07:15:28.748Z,1.77
2023-04-19T07:17:31.501Z,2.20
2023-04-19T07:19:35.530Z,1.90
2023-04-19T07:21:39.529Z,1.70
2023-04-19T07:23:42.939Z,2.10
2023-04-19T07:25:47.096Z,1.97
2023-04-19T07:27:52.538Z,2.37
2023-04-19T07:29:55.330Z,1.77
2023-04-19T07:32:00.038Z,2.00
2023-04-19T07:34:02.780Z,1.70
2023-04-19T07:36:06.543Z,2.10
2023-04-19T07:38:09.783Z,1.93
2023-04-19T07:40:13.358Z,2.23
2023-04-19T07:42:17.396Z,1.73
2023-04-19T07:44:20.213Z,1.80
2023-04-19T07:46:23.490Z,1.97
2023-04-19T07:48:26.294Z,2.27
2023-04-19T07:50:28.955Z,2.03
2023-04-19T07:52:31.646Z,2.20
2023-04-19T07:54:35.991Z,1.73
2023-04-19T07:56:38.782Z,2.13
2023-04-19T07:59:06.911Z,2.03
2023-04-19T08:01:11.558Z,1.50
2023-04-19T08:03:14.493Z,1.83
2023-04-19T08:05:17.972Z,2.00
2023-04-19T08:07:20.978Z,1.97
2023-04-19T08:09:24.019Z,1.90
2023-04-19T08:11:26.721Z,1.80
2023-04-19T08:13:29.436Z,2.20
2023-04-19T08:17:42.603Z,1.70
2023-04-19T08:19:45.659Z,1.87
2023-04-19T08:21:48.351Z,1.80
2023-04-19T08:23:53.541Z,1.87
2023-04-19T08:25:57.382Z,1.80
2023-04-19T08:28:00.126Z,1.60
2023-04-19T08:30:03.426Z,1.90
2023-04-19T08:32:07.977Z,2.03
2023-04-19T08:34:11.256Z,2.20
2023-04-19T08:36:17.056Z,2.20
2023-04-19T08:38:22.430Z,2.10
2023-04-19T08:40:25.324Z,2.07
2023-04-19T08:42:36.553Z,1.70
2023-04-19T08:44:49.236Z,1.53
2023-04-19T08:47:02.309Z,1.90
2023-04-19T08:49:07.216Z,1.83
2023-04-19T08:51:09.932Z,1.70
2023-04-19T08:55:18.269Z,2.00
2023-04-19T08:57:21.976Z,1.63
2023-04-19T08:59:24.784Z,1.60
2023-04-19T09:01:35.651Z,1.50
2023-04-19T09:03:58.533Z,1.83
2023-04-19T09:06:07.533Z,1.53
2023-04-19T09:08:22.989Z,2.07
2023-04-19T09:10:26.362Z,2.30
2023-04-19T09:12:29.053Z,1.60
2023-04-19T09:14:31.912Z,1.60
2023-04-19T09:16:35.021Z,1.80
2023-04-19T09:19:02.465Z,1.90
2023-04-19T09:21:13.077Z,1.40
2023-04-19T09:23:18.350Z,1.90
2023-04-19T09:25:46.400Z,1.90
2023-04-19T09:27:48.718Z,1.57
2023-04-19T09:29:54.251Z,1.77
2023-04-19T09:31:58.724Z,1.80
2023-04-19T09:34:13.568Z,1.60
2023-04-19T09:36:28.472Z,1.80
2023-04-19T09:38:31.192Z,1.43
2023-04-19T09:40:34.030Z,1.80
2023-04-19T09:47:22.419Z,2.00
2023-04-19T09:49:37.388Z,1.80
2023-04-19T09:51:46.122Z,2.03
2023-04-19T09:53:48.858Z,1.93
2023-04-19T09:56:01.497Z,1.60
2023-04-19T09:58:05.147Z,1.43
2023-04-19T10:00:13.275Z,1.33
2023-04-19T10:02:16.098Z,1.43
2023-04-19T10:04:29.385Z,1.83
2023-04-19T10:07:07.039Z,1.57
2023-04-19T10:09:05.538Z,1.80
2023-04-19T10:11:08.178Z,1.47
2023-04-19T10:13:19.778Z,1.70
2023-04-19T10:15:24.658Z,1.63
2023-04-19T10:17:27.391Z,1.30
2023-04-19T10:19:33.441Z,1.50
2023-04-19T10:21:36.134Z,1.60
2023-04-19T10:23:38.837Z,1.80
2023-04-19T10:25:46.782Z,1.83
2023-04-19T10:27:51.364Z,1.90
2023-04-19T10:29:58.301Z,1.40
2023-04-19T10:32:01.259Z,1.80
2023-04-19T10:34:04.028Z,1.60
2023-04-19T10:36:09.964Z,1.70
2023-04-19T10:38:13.352Z,1.60
2023-04-19T10:40:20.240Z,1.57
2023-04-19T10:42:24.451Z,1.60
2023-04-19T10:44:27.589Z,1.73
2023-04-19T10:46:38.239Z,1.70
2023-04-19T10:48:44.201Z,1.60
2023-04-19T10:50:58.986Z,1.40
2023-04-19T10:53:27.651Z,1.40
2023-04-19T10:55:30.354Z,1.50
2023-04-19T10:58:00.292Z,1.90
2023-04-19T11:00:22.403Z,1.47
2023-04-19T11:02:29.295Z,1.57
2023-04-19T11:04:58.856Z,1.80
2023-04-19T11:07:03.066Z,1.70
2023-04-19T11:09:07.243Z,1.43
2023-04-19T11:11:09.989Z,1.77
2023-04-19T11:13:12.899Z,1.67
2023-04-19T11:15:15.986Z,1.50
2023-04-19T11:17:20.699Z,1.80
2023-04-19T11:19:23.778Z,2.13
2023-04-19T11:21:30.271Z,1.60
2023-04-19T11:23:34.343Z,1.50
2023-04-19T11:25:37.023Z,1.83
2023-04-19T11:27:40.431Z,1.60
2023-04-19T11:29:43.225Z,1.63
2023-04-19T11:31:46.495Z,1.60
2023-04-19T11:33:51.552Z,1.60
2023-04-19T11:35:54.607Z,1.53
2023-04-19T11:37:57.578Z,1.50
2023-04-19T11:40:02.642Z,1.90
2023-04-19T11:42:07.153Z,1.37
2023-04-19T11:44:15.157Z,1.90
2023-04-19T11:46:18.108Z,1.40
2023-04-19T11:48:21.357Z,1.60
2023-04-19T11:50:33.279Z,1.50
2023-04-19T11:52:36.355Z,1.50
2023-04-19T11:54:40.011Z,1.60
2023-04-19T11:56:58.918Z,1.70
2023-04-19T11:59:01.659Z,1.73
2023-04-19T12:01:06.713Z,1.50
2023-04-19T12:03:12.503Z,1.90
2023-04-19T12:05:16.869Z,1.50
2023-04-19T12:07:22.011Z,1.63
2023-04-19T12:09:24.705Z,1.60
2023-04-19T12:11:44.343Z,1.60
2023-04-19T12:13:47.011Z,1.80
2023-04-19T12:15:50.042Z,1.37
2023-04-19T12:17:57.954Z,1.90
2023-04-19T12:20:00.730Z,1.30
2023-04-19T12:22:09.265Z,1.90
2023-04-19T12:24:13.602Z,1.70
2023-04-19T12:26:18.343Z,1.53
2023-04-19T12:28:21.557Z,1.47
2023-04-19T12:30:24.205Z,1.70
2023-04-19T12:32:29.492Z,1.80
2023-04-19T12:34:32.694Z,1.67
2023-04-19T12:36:36.010Z,1.83
2023-04-19T12:38:38.971Z,1.40
2023-04-19T12:40:43.248Z,1.97
2023-04-19T12:42:46.076Z,1.73
2023-04-19T12:44:48.801Z,1.93
2023-04-19T12:46:52.062Z,2.10
2023-04-19T12:48:55.355Z,1.60
2023-04-19T12:50:58.204Z,1.57
2023-04-19T12:53:01.042Z,1.70
2023-04-19T12:55:04.022Z,1.33
2023-04-19T12:57:08.349Z,1.47
2023-04-19T12:59:11.446Z,1.90
2023-04-19T13:01:14.174Z,1.90
2023-04-19T13:03:17.078Z,1.60
2023-04-19T13:05:19.846Z,1.57
2023-04-19T13:07:22.877Z,1.87
2023-04-19T13:09:25.788Z,1.77
2023-04-19T13:11:28.484Z,1.70
2023-04-19T13:13:32.860Z,1.80
2023-04-19T13:15:36.131Z,1.63
2023-04-19T13:17:38.877Z,1.80
2023-04-19T13:19:41.736Z,1.80
2023-04-19T13:21:44.429Z,1.80
2023-04-19T13:23:47.552Z,1.70
2023-04-19T13:25:50.502Z,1.50
2023-04-19T13:27:53.270Z,1.80
2023-04-19T13:29:57.297Z,1.87
2023-04-19T13:32:00.275Z,1.60
2023-04-19T13:34:02.947Z,1.53
2023-04-19T13:36:06.908Z,1.50
2023-04-19T13:38:10.349Z,1.90
2023-04-19T13:40:19.082Z,1.43
2023-04-19T13:42:23.384Z,1.57
2023-04-19T13:44:26.219Z,1.70
2023-04-19T13:46:30.683Z,1.90
2023-04-19T13:48:33.420Z,1.50
2023-04-19T13:50:36.093Z,1.90
2023-04-19T13:52:38.782Z,1.50
2023-04-19T13:54:41.429Z,1.87
2023-04-19T13:56:44.135Z,1.50
2023-04-19T13:58:46.821Z,1.90
2023-04-19T14:00:49.817Z,1.60
2023-04-19T14:02:53.838Z,1.70
2023-04-19T14:04:58.887Z,2.10
2023-04-19T14:07:01.632Z,1.80
2023-04-19T14:09:04.690Z,1.90
2023-04-19T14:11:07.413Z,1.83
2023-04-19T14:13:10.196Z,1.43
2023-04-19T14:15:13.620Z,1.70
2023-04-19T14:17:17.610Z,1.77
2023-04-19T14:19:21.675Z,1.77
2023-04-19T14:21:24.430Z,1.60
2023-04-19T14:23:28.003Z,1.67
2023-04-19T14:25:31.444Z,1.80
2023-04-19T14:27:34.249Z,2.10
2023-04-19T14:29:36.946Z,1.60
2023-04-19T14:31:40.075Z,1.60
2023-04-19T14:33:43.101Z,1.60
2023-04-19T14:35:47.146Z,1.80
2023-04-19T14:37:51.355Z,1.90
2023-04-19T14:39:54.597Z,2.10
2023-04-19T14:41:57.874Z,1.70
2023-04-19T14:44:00.903Z,1.57
2023-04-19T14:46:03.692Z,1.70
2023-04-19T14:48:06.999Z,1.90
2023-04-19T14:50:10.710Z,2.07
2023-04-19T14:52:14.838Z,1.67
2023-04-19T14:54:18.084Z,1.80
2023-04-19T14:56:20.961Z,1.87
2023-04-19T14:58:23.969Z,1.67
2023-04-19T15:00:26.769Z,2.00
2023-04-19T15:02:30.206Z,2.00
2023-04-19T15:04:40.792Z,1.80
2023-04-19T15:06:44.166Z,1.90
2023-04-19T15:08:48.767Z,2.00
2023-04-19T15:10:51.762Z,1.87
2023-04-19T15:12:54.591Z,1.80
2023-04-19T15:14:57.328Z,1.80
2023-04-19T15:17:00.404Z,2.20
2023-04-19T15:19:07.335Z,1.90
2023-04-19T15:21:11.070Z,1.50
2023-04-19T15:23:13.792Z,1.87
2023-04-19T15:25:19.641Z,2.10
2023-04-19T15:27:22.547Z,2.17
2023-04-19T15:29:25.305Z,2.23
2023-04-19T15:31:28.072Z,2.13
2023-04-19T15:33:57.830Z,1.80
2023-04-19T15:36:01.636Z,1.90
2023-04-19T15:38:04.360Z,1.73
2023-04-19T15:40:09.726Z,2.60
2023-04-19T15:42:13.769Z,2.50
2023-04-19T15:44:16.999Z,1.70
2023-04-19T15:46:19.789Z,1.80
2023-04-19T15:48:22.710Z,2.03
2023-04-19T15:50:26.246Z,1.90
2023-04-19T15:52:29.207Z,1.90
2023-04-19T15:54:31.902Z,2.10
2023-04-19T15:56:34.619Z,2.10
2023-04-19T15:58:39.062Z,2.40
2023-04-19T16:00:44.081Z,2.20
2023-04-19T16:02:48.058Z,1.60
2023-04-19T16:04:51.398Z,2.10
2023-04-19T16:06:54.529Z,2.37
2023-04-19T16:08:57.226Z,2.43
2023-04-19T16:11:02.475Z,2.50
2023-04-19T16:13:05.647Z,2.30
2023-04-19T16:15:10.961Z,2.57
2023-04-19T16:17:13.661Z,2.20
2023-04-19T16:19:16.422Z,2.27
2023-04-19T16:21:19.408Z,2.40
2023-04-19T16:23:22.707Z,2.23
2023-04-19T16:25:25.757Z,2.27
2023-04-19T16:27:28.465Z,2.00
2023-04-19T16:29:31.675Z,2.07
2023-04-19T16:31:36.334Z,2.57
2023-04-19T16:33:39.031Z,2.27
2023-04-19T16:35:41.713Z,2.27
2023-04-19T16:37:44.454Z,2.60
2023-04-19T16:39:47.695Z,2.40
2023-04-19T16:41:50.476Z,2.43
2023-04-19T16:43:55.960Z,2.30
2023-04-19T16:45:59.023Z,2.30
2023-04-19T16:48:12.723Z,2.37
2023-04-19T16:50:15.540Z,2.80
2023-04-19T16:52:18.254Z,2.00
2023-04-19T16:54:21.353Z,2.63
2023-04-19T16:56:24.293Z,2.63
2023-04-19T16:58:27.746Z,2.60
2023-04-19T17:00:30.691Z,2.50
2023-04-19T17:02:33.925Z,2.60
2023-04-19T17:04:59.273Z,2.17
2023-04-19T17:07:03.159Z,2.30
2023-04-19T17:09:07.778Z,2.80
2023-04-19T17:11:10.841Z,2.33
2023-04-19T17:13:14.068Z,2.47
2023-04-19T17:15:16.854Z,2.30
2023-04-19T17:17:20.078Z,2.30
2023-04-19T17:19:22.814Z,2.30
2023-04-19T17:21:27.526Z,2.23
2023-04-19T17:23:30.586Z,2.40
2023-04-19T17:25:33.242Z,2.70
2023-04-19T17:27:35.924Z,2.30
2023-04-19T17:29:38.974Z,2.30
2023-04-19T17:31:51.520Z,2.50
2023-04-19T17:33:54.292Z,2.20
2023-04-19T17:35:56.942Z,2.83
2023-04-19T17:38:00.952Z,2.37
2023-04-19T17:40:04.030Z,2.30
2023-04-19T17:42:06.768Z,2.37
2023-04-19T17:44:09.437Z,2.40
2023-04-19T17:46:13.257Z,2.30
2023-04-19T17:48:16.423Z,2.53
2023-04-19T17:50:19.097Z,2.60
2023-04-19T17:52:22.351Z,2.40
2023-04-19T17:54:26.330Z,2.60
2023-04-19T17:56:29.008Z,2.23
2023-04-19T17:58:32.141Z,2.70
2023-04-19T18:00:34.837Z,2.90
2023-04-19T18:02:37.761Z,2.50
2023-04-19T18:04:44.620Z,2.60
2023-04-19T18:06:47.536Z,2.70
2023-04-19T18:08:50.275Z,2.53
2023-04-19T18:10:54.222Z,2.50
2023-04-19T18:12:57.494Z,2.87
2023-04-19T18:15:00.180Z,2.30
2023-04-19T18:17:06.454Z,2.90
2023-04-19T18:19:09.500Z,2.27
2023-04-19T18:21:12.166Z,2.40
2023-04-19T18:23:26.907Z,2.80
2023-04-19T18:25:29.940Z,2.27
2023-04-19T18:27:39.980Z,2.53
2023-04-19T18:29:42.896Z,2.33
2023-04-19T18:31:45.809Z,2.63
2023-04-19T18:33:49.247Z,2.63
2023-04-19T18:35:53.197Z,2.80
2023-04-19T18:37:55.961Z,2.23
2023-04-19T18:39:58.824Z,2.53
2023-04-19T18:42:01.865Z,2.67
2023-04-19T18:44:34.764Z,2.30
2023-04-19T18:46:29.983Z,2.53
2023-04-19T18:48:38.828Z,2.30
2023-04-19T18:50:42.116Z,2.70
2023-04-19T18:52:45.044Z,2.50
2023-04-19T18:54:47.994Z,2.33
2023-04-19T18:57:19.100Z,2.40
2023-04-19T18:59:16.096Z,2.20
2023-04-19T19:01:22.342Z,2.50
2023-04-19T19:03:58.093Z,2.30
2023-04-19T19:05:52.043Z,2.20
2023-04-19T19:07:54.998Z,2.20
2023-04-19T19:10:02.501Z,2.73
2023-04-19T19:12:12.658Z,2.77
2023-04-19T19:14:17.944Z,2.30
2023-04-19T19:16:21.071Z,3.07
2023-04-19T19:18:24.545Z,2.40
2023-04-19T19:20:42.171Z,2.43
2023-04-19T19:24:48.565Z,2.37
2023-04-19T19:26:51.434Z,2.53
2023-04-19T19:28:54.607Z,2.37
2023-04-19T19:30:59.101Z,2.40
2023-04-19T19:33:02.734Z,2.47
2023-04-19T19:35:08.444Z,2.30
2023-04-19T19:37:12.006Z,2.43
2023-04-19T19:39:15.080Z,2.43
2023-04-19T19:43:24.334Z,2.40
2023-04-19T19:45:28.268Z,2.57
2023-04-19T19:47:35.304Z,2.67
2023-04-19T19:51:57.877Z,2.20
2023-04-19T19:54:01.948Z,2.80
2023-04-19T19:56:12.988Z,2.30
2023-04-19T19:58:46.313Z,2.57
2023-04-19T20:00:47.841Z,2.73
2023-04-19T20:02:56.371Z,2.33
2023-04-19T20:05:00.095Z,2.83
2023-04-19T20:09:09.796Z,2.70
2023-04-19T20:11:14.205Z,2.50
2023-04-19T20:13:17.609Z,2.17
2023-04-19T20:15:22.240Z,2.27
2023-04-19T20:17:25.322Z,2.40
2023-04-19T20:19:29.759Z,2.63
2023-04-19T20:21:32.546Z,2.70
2023-04-19T20:23:35.303Z,2.00
2023-04-19T20:25:38.650Z,2.37
2023-04-19T20:27:41.416Z,2.50
2023-04-19T20:29:44.113Z,2.47
2023-04-19T20:31:46.900Z,2.83
2023-04-19T20:33:52.523Z,2.33
2023-04-19T20:35:56.900Z,2.50
2023-04-19T20:38:02.607Z,2.37
2023-04-19T20:40:06.261Z,2.50
2023-04-19T20:42:08.959Z,2.27
2023-04-19T20:44:11.769Z,2.37
2023-04-19T20:46:14.708Z,2.40
2023-04-19T20:48:17.819Z,2.40
2023-04-19T20:50:20.758Z,2.33
2023-04-19T20:52:24.710Z,2.27
2023-04-19T20:54:27.389Z,2.37
2023-04-19T20:56:30.093Z,2.20
2023-04-19T20:58:33.727Z,2.30
2023-04-19T21:00:36.391Z,2.13
2023-04-19T21:02:39.204Z,3.10
2023-04-19T21:04:42.248Z,2.37
2023-04-19T21:06:45.524Z,2.30
2023-04-19T21:08:49.762Z,2.57
2023-04-19T21:10:52.427Z,2.67
2023-04-19T21:12:55.238Z,2.60
2023-04-19T21:14:57.948Z,2.20
2023-04-19T21:17:00.698Z,2.50
2023-04-19T21:19:03.621Z,2.27
2023-04-19T21:21:06.346Z,2.30
2023-04-19T21:23:10.000Z,2.30
2023-04-19T21:25:14.025Z,2.50
2023-04-19T21:27:18.368Z,2.67
2023-04-19T21:29:21.280Z,2.50
2023-04-19T21:31:24.024Z,2.20
2023-04-19T21:33:26.764Z,2.60
2023-04-19T21:35:29.443Z,2.40
2023-04-19T21:37:32.647Z,2.30
2023-04-19T21:39:36.005Z,2.50
2023-04-19T21:41:40.008Z,2.37
2023-04-19T21:43:42.663Z,1.90
2023-04-19T21:45:45.966Z,1.73
2023-04-19T21:47:48.720Z,2.20
2023-04-19T21:49:51.939Z,2.77
2023-04-19T21:51:54.709Z,2.13
2023-04-19T21:53:57.780Z,2.50
2023-04-19T21:56:01.679Z,2.20
2023-04-19T21:58:05.933Z,2.33
2023-04-19T22:00:10.126Z,2.30
2023-04-19T22:02:15.299Z,2.27
2023-04-19T22:04:18.215Z,2.13
2023-04-19T22:06:21.888Z,2.13
2023-04-19T22:08:24.651Z,2.10
2023-04-19T22:10:29.038Z,2.30
2023-04-19T22:12:31.978Z,1.97
2023-04-19T22:14:35.970Z,2.50
2023-04-19T22:16:40.502Z,2.17
2023-04-19T22:18:46.251Z,2.20
2023-04-19T22:20:50.866Z,2.10
2023-04-19T22:22:53.633Z,2.23
2023-04-19T22:24:57.969Z,2.10
2023-04-19T22:27:01.784Z,2.40
2023-04-19T22:29:04.493Z,2.40
2023-04-19T22:31:08.778Z,2.30
2023-04-19T22:33:11.667Z,2.13
2023-04-19T22:35:14.476Z,2.30
2023-04-19T22:37:17.772Z,2.60
2023-04-19T22:39:20.697Z,1.90
2023-04-19T22:41:23.427Z,2.57
2023-04-19T22:43:26.234Z,2.30
2023-04-19T22:45:30.017Z,2.20
2023-04-19T22:47:34.063Z,2.33
2023-04-19T22:49:37.189Z,1.90
2023-04-19T22:51:42.520Z,2.10
2023-04-19T22:53:45.950Z,2.37
2023-04-19T22:55:48.785Z,2.60
2023-04-19T22:57:51.712Z,2.20
2023-04-19T22:59:57.324Z,1.97
2023-04-19T23:02:01.495Z,2.23
2023-04-19T23:04:07.017Z,2.40
2023-04-19T23:06:09.781Z,2.00
2023-04-19T23:08:16.549Z,1.83
2023-04-19T23:10:22.794Z,2.20
2023-04-19T23:12:25.925Z,2.10
2023-04-19T23:14:30.032Z,2.40
2023-04-19T23:16:33.418Z,2.30
2023-04-19T23:18:37.066Z,2.00
2023-04-19T23:20:41.551Z,2.30
2023-04-19T23:22:44.495Z,2.20
2023-04-19T23:24:47.144Z,2.03
2023-04-19T23:26:50.361Z,2.27
2023-04-19T23:28:53.194Z,1.73
2023-04-19T23:30:56.111Z,1.70
2023-04-19T23:32:58.860Z,1.60
2023-04-19T23:35:01.792Z,1.80
2023-04-19T23:37:11.900Z,1.93
2023-04-19T23:39:16.309Z,2.07
2023-04-19T23:41:19.484Z,2.00
2023-04-19T23:43:22.147Z,1.90
2023-04-19T23:45:25.215Z,1.90
2023-04-19T23:47:28.096Z,1.57
2023-04-19T23:49:30.852Z,2.17
2023-04-19T23:51:34.165Z,1.67
2023-04-19T23:53:38.674Z,1.97
2023-04-19T23:55:41.400Z,2.00
2023-04-19T23:57:44.283Z,1.70
2023-04-19T23:59:47.448Z,1.57
